sensor_id;sensor_type;location;lat;lon;timestamp;temperature;humidity
8778;DHT22;4425;50.872;4.712;2022-08-05T00:00:46;20.40;99.90
8778;DHT22;4425;50.872;4.712;2022-08-05T00:03:16;20.40;99.90
8778;DHT22;4425;50.872;4.712;2022-08-05T00:05:44;20.40;99.90
8778;DHT22;4425;50.872;4.712;2022-08-05T00:08:17;20.40;99.90
8778;DHT22;4425;50.872;4.712;2022-08-05T00:10:44;20.40;99.90
8778;DHT22;4425;50.872;4.712;2022-08-05T00:13:12;20.40;99.90
8778;DHT22;4425;50.872;4.712;2022-08-05T00:15:39;20.40;99.90
8778;DHT22;4425;50.872;4.712;2022-08-05T00:18:07;20.40;99.90
8778;DHT22;4425;50.872;4.712;2022-08-05T00:20:35;20.50;99.90
8778;DHT22;4425;50.872;4.712;2022-08-05T00:23:03;20.50;99.90
8778;DHT22;4425;50.872;4.712;2022-08-05T00:25:32;20.50;99.90
8778;DHT22;4425;50.872;4.712;2022-08-05T00:27:59;20.60;99.90
8778;DHT22;4425;50.872;4.712;2022-08-05T00:30:27;20.60;99.90
8778;DHT22;4425;50.872;4.712;2022-08-05T00:32:54;20.70;99.90
8778;DHT22;4425;50.872;4.712;2022-08-05T00:35:22;20.70;99.90
8778;DHT22;4425;50.872;4.712;2022-08-05T00:37:50;20.80;99.90
8778;DHT22;4425;50.872;4.712;2022-08-05T00:40:18;20.90;99.90
8778;DHT22;4425;50.872;4.712;2022-08-05T00:42:52;20.90;99.90
8778;DHT22;4425;50.872;4.712;2022-08-05T00:49:06;21.00;99.90
8778;DHT22;4425;50.872;4.712;2022-08-05T00:51:37;21.10;99.90
8778;DHT22;4425;50.872;4.712;2022-08-05T00:54:07;21.10;99.90
8778;DHT22;4425;50.872;4.712;2022-08-05T00:56:34;21.10;99.90
8778;DHT22;4425;50.872;4.712;2022-08-05T00:59:06;21.20;99.90
8778;DHT22;4425;50.872;4.712;2022-08-05T01:01:39;21.10;99.90
8778;DHT22;4425;50.872;4.712;2022-08-05T01:04:09;21.00;99.90
8778;DHT22;4425;50.872;4.712;2022-08-05T01:06:40;20.90;99.90
8778;DHT22;4425;50.872;4.712;2022-08-05T01:09:18;20.80;99.90
8778;DHT22;4425;50.872;4.712;2022-08-05T01:12:16;20.60;99.90
8778;DHT22;4425;50.872;4.712;2022-08-05T01:14:49;20.50;99.90
8778;DHT22;4425;50.872;4.712;2022-08-05T01:17:23;20.40;99.90
8778;DHT22;4425;50.872;4.712;2022-08-05T01:20:02;20.30;99.90
8778;DHT22;4425;50.872;4.712;2022-08-05T01:22:45;20.30;99.90
8778;DHT22;4425;50.872;4.712;2022-08-05T01:32:12;19.90;99.90
8778;DHT22;4425;50.872;4.712;2022-08-05T01:34:48;19.90;99.90
8778;DHT22;4425;50.872;4.712;2022-08-05T01:37:34;19.80;99.90
8778;DHT22;4425;50.872;4.712;2022-08-05T01:40:04;19.80;99.90
8778;DHT22;4425;50.872;4.712;2022-08-05T01:42:36;19.90;99.90
8778;DHT22;4425;50.872;4.712;2022-08-05T01:45:07;19.90;99.90
8778;DHT22;4425;50.872;4.712;2022-08-05T01:47:37;20.00;99.90
8778;DHT22;4425;50.872;4.712;2022-08-05T01:50:15;20.00;99.90
8778;DHT22;4425;50.872;4.712;2022-08-05T01:52:45;20.00;99.90
8778;DHT22;4425;50.872;4.712;2022-08-05T01:55:14;19.90;99.90
8778;DHT22;4425;50.872;4.712;2022-08-05T02:01:26;19.90;99.90
8778;DHT22;4425;50.872;4.712;2022-08-05T02:03:58;19.90;99.90
8778;DHT22;4425;50.872;4.712;2022-08-05T02:06:26;19.90;99.90
8778;DHT22;4425;50.872;4.712;2022-08-05T02:08:54;19.90;99.90
8778;DHT22;4425;50.872;4.712;2022-08-05T02:11:23;20.00;99.90
8778;DHT22;4425;50.872;4.712;2022-08-05T02:13:55;20.00;99.90
8778;DHT22;4425;50.872;4.712;2022-08-05T02:16:30;20.00;99.90
8778;DHT22;4425;50.872;4.712;2022-08-05T02:19:04;20.00;99.90
8778;DHT22;4425;50.872;4.712;2022-08-05T02:21:40;20.10;99.90
8778;DHT22;4425;50.872;4.712;2022-08-05T02:24:15;20.10;99.90
8778;DHT22;4425;50.872;4.712;2022-08-05T02:26:48;20.00;99.90
8778;DHT22;4425;50.872;4.712;2022-08-05T02:29:20;20.00;99.90
8778;DHT22;4425;50.872;4.712;2022-08-05T02:31:50;20.00;99.90
8778;DHT22;4425;50.872;4.712;2022-08-05T02:34:23;20.10;99.90
8778;DHT22;4425;50.872;4.712;2022-08-05T02:36:54;20.10;99.90
8778;DHT22;4425;50.872;4.712;2022-08-05T02:39:24;20.10;99.90
8778;DHT22;4425;50.872;4.712;2022-08-05T02:41:54;20.20;99.90
8778;DHT22;4425;50.872;4.712;2022-08-05T02:44:24;20.20;99.90
8778;DHT22;4425;50.872;4.712;2022-08-05T02:46:54;20.20;99.90
8778;DHT22;4425;50.872;4.712;2022-08-05T02:49:25;20.20;99.90
8778;DHT22;4425;50.872;4.712;2022-08-05T02:51:53;20.20;99.90
8778;DHT22;4425;50.872;4.712;2022-08-05T02:54:26;20.20;99.90
8778;DHT22;4425;50.872;4.712;2022-08-05T03:14:14;20.20;99.90
8778;DHT22;4425;50.872;4.712;2022-08-05T03:16:41;20.30;99.90
8778;DHT22;4425;50.872;4.712;2022-08-05T03:19:13;20.30;99.90
8778;DHT22;4425;50.872;4.712;2022-08-05T03:28:37;20.20;99.90
8778;DHT22;4425;50.872;4.712;2022-08-05T03:31:08;20.10;99.90
8778;DHT22;4425;50.872;4.712;2022-08-05T03:33:36;20.10;99.90
8778;DHT22;4425;50.872;4.712;2022-08-05T03:36:05;19.80;99.90
8778;DHT22;4425;50.872;4.712;2022-08-05T03:38:32;19.60;99.90
8778;DHT22;4425;50.872;4.712;2022-08-05T03:41:00;19.50;99.90
8778;DHT22;4425;50.872;4.712;2022-08-05T03:43:36;19.40;99.90
8778;DHT22;4425;50.872;4.712;2022-08-05T03:46:12;19.40;99.90
8778;DHT22;4425;50.872;4.712;2022-08-05T03:48:41;19.40;99.90
8778;DHT22;4425;50.872;4.712;2022-08-05T03:51:12;19.30;99.90
8778;DHT22;4425;50.872;4.712;2022-08-05T03:53:49;19.20;99.90
8778;DHT22;4425;50.872;4.712;2022-08-05T03:56:23;19.20;99.90
8778;DHT22;4425;50.872;4.712;2022-08-05T03:58:55;19.20;99.90
8778;DHT22;4425;50.872;4.712;2022-08-05T04:01:25;19.10;99.90
8778;DHT22;4425;50.872;4.712;2022-08-05T04:03:57;19.10;99.90
8778;DHT22;4425;50.872;4.712;2022-08-05T04:06:26;19.10;99.90
8778;DHT22;4425;50.872;4.712;2022-08-05T04:08:57;19.10;99.90
8778;DHT22;4425;50.872;4.712;2022-08-05T04:11:26;19.10;99.90
8778;DHT22;4425;50.872;4.712;2022-08-05T04:13:54;19.00;99.90
8778;DHT22;4425;50.872;4.712;2022-08-05T04:19:47;19.00;99.90
8778;DHT22;4425;50.872;4.712;2022-08-05T04:22:20;19.00;99.90
8778;DHT22;4425;50.872;4.712;2022-08-05T04:24:49;19.00;99.90
8778;DHT22;4425;50.872;4.712;2022-08-05T04:27:20;19.00;99.90
8778;DHT22;4425;50.872;4.712;2022-08-05T04:29:51;19.00;99.90
8778;DHT22;4425;50.872;4.712;2022-08-05T04:35:38;19.00;99.90
8778;DHT22;4425;50.872;4.712;2022-08-05T04:38:23;19.10;99.90
8778;DHT22;4425;50.872;4.712;2022-08-05T04:40:53;19.10;99.90
8778;DHT22;4425;50.872;4.712;2022-08-05T04:43:26;19.10;99.90
8778;DHT22;4425;50.872;4.712;2022-08-05T04:45:58;19.10;99.90
8778;DHT22;4425;50.872;4.712;2022-08-05T04:48:26;19.20;99.90
8778;DHT22;4425;50.872;4.712;2022-08-05T04:50:56;19.10;99.90
8778;DHT22;4425;50.872;4.712;2022-08-05T04:53:26;19.10;99.90
8778;DHT22;4425;50.872;4.712;2022-08-05T04:55:57;19.10;99.90
8778;DHT22;4425;50.872;4.712;2022-08-05T04:58:27;19.10;99.90
8778;DHT22;4425;50.872;4.712;2022-08-05T05:00:56;19.10;99.90
8778;DHT22;4425;50.872;4.712;2022-08-05T05:03:25;19.00;99.90
8778;DHT22;4425;50.872;4.712;2022-08-05T05:05:56;19.00;99.90
8778;DHT22;4425;50.872;4.712;2022-08-05T05:08:29;19.00;99.90
8778;DHT22;4425;50.872;4.712;2022-08-05T05:10:56;19.00;99.90
8778;DHT22;4425;50.872;4.712;2022-08-05T05:13:24;19.00;99.90
8778;DHT22;4425;50.872;4.712;2022-08-05T05:16:06;18.90;99.90
8778;DHT22;4425;50.872;4.712;2022-08-05T05:18:40;18.90;99.90
8778;DHT22;4425;50.872;4.712;2022-08-05T05:21:23;18.90;99.90
8778;DHT22;4425;50.872;4.712;2022-08-05T05:23:51;18.90;99.90
8778;DHT22;4425;50.872;4.712;2022-08-05T05:26:19;18.90;99.90
8778;DHT22;4425;50.872;4.712;2022-08-05T05:28:48;19.00;99.90
8778;DHT22;4425;50.872;4.712;2022-08-05T05:31:15;19.00;99.90
8778;DHT22;4425;50.872;4.712;2022-08-05T05:33:45;19.00;99.90
8778;DHT22;4425;50.872;4.712;2022-08-05T05:36:13;18.90;99.90
8778;DHT22;4425;50.872;4.712;2022-08-05T05:38:42;19.00;99.90
8778;DHT22;4425;50.872;4.712;2022-08-05T05:44:30;19.00;99.90
8778;DHT22;4425;50.872;4.712;2022-08-05T05:47:03;19.10;99.90
8778;DHT22;4425;50.872;4.712;2022-08-05T05:49:33;19.10;99.90
8778;DHT22;4425;50.872;4.712;2022-08-05T05:52:01;19.20;99.90
8778;DHT22;4425;50.872;4.712;2022-08-05T05:54:31;19.20;99.90
8778;DHT22;4425;50.872;4.712;2022-08-05T05:56:59;19.30;99.90
8778;DHT22;4425;50.872;4.712;2022-08-05T05:59:26;19.40;99.90
8778;DHT22;4425;50.872;4.712;2022-08-05T06:01:53;19.40;99.90
8778;DHT22;4425;50.872;4.712;2022-08-05T06:04:26;19.50;99.90
8778;DHT22;4425;50.872;4.712;2022-08-05T06:06:56;19.50;99.90
8778;DHT22;4425;50.872;4.712;2022-08-05T06:09:39;19.40;99.90
8778;DHT22;4425;50.872;4.712;2022-08-05T06:12:08;19.30;99.90
8778;DHT22;4425;50.872;4.712;2022-08-05T06:14:36;19.40;99.90
8778;DHT22;4425;50.872;4.712;2022-08-05T06:17:03;19.50;99.90
8778;DHT22;4425;50.872;4.712;2022-08-05T06:19:32;19.60;99.90
8778;DHT22;4425;50.872;4.712;2022-08-05T06:22:00;19.80;99.90
8778;DHT22;4425;50.872;4.712;2022-08-05T06:24:28;19.80;99.90
8778;DHT22;4425;50.872;4.712;2022-08-05T06:27:00;20.00;99.90
8778;DHT22;4425;50.872;4.712;2022-08-05T06:29:31;20.10;99.90
8778;DHT22;4425;50.872;4.712;2022-08-05T06:32:01;20.20;99.90
8778;DHT22;4425;50.872;4.712;2022-08-05T06:34:30;20.30;99.90
8778;DHT22;4425;50.872;4.712;2022-08-05T06:37:00;20.50;99.90
8778;DHT22;4425;50.872;4.712;2022-08-05T06:39:34;20.50;99.90
8778;DHT22;4425;50.872;4.712;2022-08-05T06:42:11;20.60;99.90
8778;DHT22;4425;50.872;4.712;2022-08-05T06:44:56;20.30;99.90
8778;DHT22;4425;50.872;4.712;2022-08-05T06:47:24;20.00;99.90
8778;DHT22;4425;50.872;4.712;2022-08-05T06:49:54;19.80;99.90
8778;DHT22;4425;50.872;4.712;2022-08-05T06:52:26;19.70;99.90
8778;DHT22;4425;50.872;4.712;2022-08-05T06:55:04;19.60;99.90
8778;DHT22;4425;50.872;4.712;2022-08-05T06:57:33;19.80;99.90
8778;DHT22;4425;50.872;4.712;2022-08-05T07:00:01;19.80;99.90
8778;DHT22;4425;50.872;4.712;2022-08-05T07:02:28;19.90;99.90
8778;DHT22;4425;50.872;4.712;2022-08-05T07:04:58;20.10;99.90
8778;DHT22;4425;50.872;4.712;2022-08-05T07:07:33;20.00;99.90
8778;DHT22;4425;50.872;4.712;2022-08-05T07:13:22;19.90;99.90
8778;DHT22;4425;50.872;4.712;2022-08-05T07:16:12;20.00;99.90
8778;DHT22;4425;50.872;4.712;2022-08-05T07:19:00;20.00;99.90
8778;DHT22;4425;50.872;4.712;2022-08-05T07:21:29;19.80;99.90
8778;DHT22;4425;50.872;4.712;2022-08-05T07:23:59;19.80;99.90
8778;DHT22;4425;50.872;4.712;2022-08-05T07:26:33;19.90;99.90
8778;DHT22;4425;50.872;4.712;2022-08-05T07:32:46;20.10;99.90
8778;DHT22;4425;50.872;4.712;2022-08-05T07:35:17;20.30;99.90
8778;DHT22;4425;50.872;4.712;2022-08-05T07:38:02;20.60;99.90
8778;DHT22;4425;50.872;4.712;2022-08-05T07:40:30;20.90;99.90
8778;DHT22;4425;50.872;4.712;2022-08-05T07:43:00;21.30;99.90
8778;DHT22;4425;50.872;4.712;2022-08-05T07:45:30;22.60;99.90
8778;DHT22;4425;50.872;4.712;2022-08-05T07:48:00;23.80;99.90
8778;DHT22;4425;50.872;4.712;2022-08-05T07:50:27;24.30;99.90
8778;DHT22;4425;50.872;4.712;2022-08-05T07:53:01;25.20;99.90
8778;DHT22;4425;50.872;4.712;2022-08-05T07:55:28;25.10;99.90
8778;DHT22;4425;50.872;4.712;2022-08-05T07:57:59;24.60;99.90
8778;DHT22;4425;50.872;4.712;2022-08-05T08:00:27;24.60;99.90
8778;DHT22;4425;50.872;4.712;2022-08-05T08:02:54;24.40;99.90
8778;DHT22;4425;50.872;4.712;2022-08-05T08:05:23;24.40;99.90
8778;DHT22;4425;50.872;4.712;2022-08-05T08:07:52;23.70;99.90
8778;DHT22;4425;50.872;4.712;2022-08-05T08:10:35;22.80;99.90
8778;DHT22;4425;50.872;4.712;2022-08-05T08:13:03;22.60;99.90
8778;DHT22;4425;50.872;4.712;2022-08-05T08:15:34;22.00;99.90
8778;DHT22;4425;50.872;4.712;2022-08-05T08:18:01;21.90;99.90
8778;DHT22;4425;50.872;4.712;2022-08-05T08:20:35;21.60;99.90
8778;DHT22;4425;50.872;4.712;2022-08-05T08:23:09;21.60;99.90
8778;DHT22;4425;50.872;4.712;2022-08-05T08:25:39;21.60;99.90
8778;DHT22;4425;50.872;4.712;2022-08-05T08:28:07;21.80;99.90
8778;DHT22;4425;50.872;4.712;2022-08-05T08:30:40;21.70;99.90
8778;DHT22;4425;50.872;4.712;2022-08-05T08:33:08;21.60;99.90
8778;DHT22;4425;50.872;4.712;2022-08-05T08:35:41;21.50;99.90
8778;DHT22;4425;50.872;4.712;2022-08-05T08:38:08;21.40;99.90
8778;DHT22;4425;50.872;4.712;2022-08-05T08:40:36;21.50;99.90
8778;DHT22;4425;50.872;4.712;2022-08-05T08:43:11;21.70;99.90
8778;DHT22;4425;50.872;4.712;2022-08-05T08:45:43;22.10;99.90
8778;DHT22;4425;50.872;4.712;2022-08-05T08:48:14;22.00;99.90
8778;DHT22;4425;50.872;4.712;2022-08-05T08:50:46;22.00;99.90
8778;DHT22;4425;50.872;4.712;2022-08-05T08:53:15;22.30;99.90
8778;DHT22;4425;50.872;4.712;2022-08-05T08:55:43;22.70;99.90
8778;DHT22;4425;50.872;4.712;2022-08-05T08:58:15;23.10;99.90
8778;DHT22;4425;50.872;4.712;2022-08-05T09:00:46;23.50;99.90
8778;DHT22;4425;50.872;4.712;2022-08-05T09:03:14;24.20;99.90
8778;DHT22;4425;50.872;4.712;2022-08-05T09:05:47;25.40;99.90
8778;DHT22;4425;50.872;4.712;2022-08-05T09:08:21;25.10;99.90
8778;DHT22;4425;50.872;4.712;2022-08-05T09:11:06;23.80;99.90
8778;DHT22;4425;50.872;4.712;2022-08-05T09:13:33;23.60;99.90
8778;DHT22;4425;50.872;4.712;2022-08-05T09:16:01;23.50;99.90
8778;DHT22;4425;50.872;4.712;2022-08-05T09:18:28;23.80;99.90
8778;DHT22;4425;50.872;4.712;2022-08-05T09:20:58;24.10;99.90
8778;DHT22;4425;50.872;4.712;2022-08-05T09:23:27;24.60;99.90
8778;DHT22;4425;50.872;4.712;2022-08-05T09:26:14;24.60;99.90
8778;DHT22;4425;50.872;4.712;2022-08-05T09:28:48;24.20;99.90
8778;DHT22;4425;50.872;4.712;2022-08-05T09:31:18;24.00;99.90
8778;DHT22;4425;50.872;4.712;2022-08-05T09:33:56;24.00;99.90
8778;DHT22;4425;50.872;4.712;2022-08-05T09:36:39;23.80;99.90
8778;DHT22;4425;50.872;4.712;2022-08-05T09:39:10;24.10;99.90
8778;DHT22;4425;50.872;4.712;2022-08-05T09:42:19;24.10;99.90
8778;DHT22;4425;50.872;4.712;2022-08-05T09:44:52;23.70;99.90
8778;DHT22;4425;50.872;4.712;2022-08-05T09:47:25;23.80;99.90
8778;DHT22;4425;50.872;4.712;2022-08-05T09:49:54;23.90;99.90
8778;DHT22;4425;50.872;4.712;2022-08-05T09:52:27;24.30;99.90
8778;DHT22;4425;50.872;4.712;2022-08-05T09:54:58;24.20;99.90
8778;DHT22;4425;50.872;4.712;2022-08-05T09:57:31;23.90;99.90
8778;DHT22;4425;50.872;4.712;2022-08-05T10:00:01;23.40;99.90
8778;DHT22;4425;50.872;4.712;2022-08-05T10:02:32;23.00;99.90
8778;DHT22;4425;50.872;4.712;2022-08-05T10:05:20;23.10;99.90
8778;DHT22;4425;50.872;4.712;2022-08-05T10:07:53;23.20;99.90
8778;DHT22;4425;50.872;4.712;2022-08-05T10:10:52;23.40;99.90
8778;DHT22;4425;50.872;4.712;2022-08-05T10:13:29;23.70;99.90
8778;DHT22;4425;50.872;4.712;2022-08-05T10:16:01;23.80;99.90
8778;DHT22;4425;50.872;4.712;2022-08-05T10:18:30;23.80;99.90
8778;DHT22;4425;50.872;4.712;2022-08-05T10:21:06;23.90;99.90
8778;DHT22;4425;50.872;4.712;2022-08-05T10:23:37;24.10;99.90
8778;DHT22;4425;50.872;4.712;2022-08-05T10:26:07;24.10;99.90
8778;DHT22;4425;50.872;4.712;2022-08-05T10:28:36;24.00;99.90
8778;DHT22;4425;50.872;4.712;2022-08-05T10:31:06;23.90;99.90
8778;DHT22;4425;50.872;4.712;2022-08-05T10:33:41;24.20;99.90
8778;DHT22;4425;50.872;4.712;2022-08-05T10:39:28;24.20;99.90
8778;DHT22;4425;50.872;4.712;2022-08-05T10:42:04;23.80;99.90
8778;DHT22;4425;50.872;4.712;2022-08-05T10:44:44;23.60;99.90
8778;DHT22;4425;50.872;4.712;2022-08-05T10:47:14;23.40;99.90
8778;DHT22;4425;50.872;4.712;2022-08-05T10:50:02;23.50;99.90
8778;DHT22;4425;50.872;4.712;2022-08-05T10:52:41;23.60;99.90
8778;DHT22;4425;50.872;4.712;2022-08-05T10:55:15;24.00;99.90
8778;DHT22;4425;50.872;4.712;2022-08-05T10:57:45;24.40;99.90
8778;DHT22;4425;50.872;4.712;2022-08-05T11:00:14;24.30;99.90
8778;DHT22;4425;50.872;4.712;2022-08-05T11:03:11;24.50;99.90
8778;DHT22;4425;50.872;4.712;2022-08-05T11:06:03;24.20;99.90
8778;DHT22;4425;50.872;4.712;2022-08-05T11:08:34;24.30;99.90
8778;DHT22;4425;50.872;4.712;2022-08-05T11:14:34;24.10;99.90
8778;DHT22;4425;50.872;4.712;2022-08-05T11:17:31;23.90;99.90
8778;DHT22;4425;50.872;4.712;2022-08-05T11:19:59;23.80;99.90
8778;DHT22;4425;50.872;4.712;2022-08-05T11:22:53;23.90;99.90
8778;DHT22;4425;50.872;4.712;2022-08-05T11:25:29;24.10;99.90
8778;DHT22;4425;50.872;4.712;2022-08-05T11:31:31;24.70;99.90
8778;DHT22;4425;50.872;4.712;2022-08-05T11:34:04;25.00;99.90
8778;DHT22;4425;50.872;4.712;2022-08-05T11:36:45;25.20;99.90
8778;DHT22;4425;50.872;4.712;2022-08-05T11:39:16;25.30;99.90
8778;DHT22;4425;50.872;4.712;2022-08-05T11:42:01;25.00;99.90
8778;DHT22;4425;50.872;4.712;2022-08-05T11:44:38;24.80;99.90
8778;DHT22;4425;50.872;4.712;2022-08-05T11:47:10;24.70;99.90
8778;DHT22;4425;50.872;4.712;2022-08-05T11:49:39;25.00;99.90
8778;DHT22;4425;50.872;4.712;2022-08-05T11:52:09;25.20;99.90
8778;DHT22;4425;50.872;4.712;2022-08-05T11:54:42;25.40;99.90
8778;DHT22;4425;50.872;4.712;2022-08-05T11:57:11;25.50;99.90
8778;DHT22;4425;50.872;4.712;2022-08-05T11:59:39;25.80;99.90
8778;DHT22;4425;50.872;4.712;2022-08-05T12:02:26;25.70;99.90
8778;DHT22;4425;50.872;4.712;2022-08-05T12:04:54;25.50;99.90
8778;DHT22;4425;50.872;4.712;2022-08-05T12:07:25;24.80;99.90
8778;DHT22;4425;50.872;4.712;2022-08-05T12:10:26;24.80;99.90
8778;DHT22;4425;50.872;4.712;2022-08-05T12:13:02;24.70;99.90
8778;DHT22;4425;50.872;4.712;2022-08-05T12:19:27;24.40;99.90
8778;DHT22;4425;50.872;4.712;2022-08-05T12:25:51;24.30;99.90
8778;DHT22;4425;50.872;4.712;2022-08-05T12:28:36;24.10;99.90
8778;DHT22;4425;50.872;4.712;2022-08-05T12:31:04;24.30;99.90
8778;DHT22;4425;50.872;4.712;2022-08-05T12:33:33;24.20;99.90
8778;DHT22;4425;50.872;4.712;2022-08-05T12:36:12;23.90;99.90
8778;DHT22;4425;50.872;4.712;2022-08-05T12:38:49;24.00;99.90
8778;DHT22;4425;50.872;4.712;2022-08-05T12:41:21;24.20;99.90
8778;DHT22;4425;50.872;4.712;2022-08-05T12:43:55;24.40;99.90
8778;DHT22;4425;50.872;4.712;2022-08-05T12:46:27;24.60;99.90
8778;DHT22;4425;50.872;4.712;2022-08-05T12:48:57;24.70;99.90
8778;DHT22;4425;50.872;4.712;2022-08-05T12:51:27;24.60;99.90
8778;DHT22;4425;50.872;4.712;2022-08-05T12:54:00;24.50;99.90
8778;DHT22;4425;50.872;4.712;2022-08-05T12:56:29;24.60;99.90
8778;DHT22;4425;50.872;4.712;2022-08-05T12:59:10;24.50;99.90
8778;DHT22;4425;50.872;4.712;2022-08-05T13:01:39;24.60;99.90
8778;DHT22;4425;50.872;4.712;2022-08-05T13:04:08;24.50;99.90
8778;DHT22;4425;50.872;4.712;2022-08-05T13:06:49;24.70;99.90
8778;DHT22;4425;50.872;4.712;2022-08-05T13:09:27;24.90;99.90
8778;DHT22;4425;50.872;4.712;2022-08-05T13:12:01;24.70;99.90
8778;DHT22;4425;50.872;4.712;2022-08-05T13:14:36;24.70;99.90
8778;DHT22;4425;50.872;4.712;2022-08-05T13:20:45;25.10;99.90
8778;DHT22;4425;50.872;4.712;2022-08-05T13:23:18;25.10;99.90
8778;DHT22;4425;50.872;4.712;2022-08-05T13:25:48;25.00;99.40
8778;DHT22;4425;50.872;4.712;2022-08-05T13:28:17;25.00;99.70
8778;DHT22;4425;50.872;4.712;2022-08-05T13:30:48;25.00;99.40
8778;DHT22;4425;50.872;4.712;2022-08-05T13:33:23;25.10;99.10
8778;DHT22;4425;50.872;4.712;2022-08-05T13:42:25;25.20;98.30
8778;DHT22;4425;50.872;4.712;2022-08-05T13:44:53;24.90;98.60
8778;DHT22;4425;50.872;4.712;2022-08-05T13:47:37;24.70;98.60
8778;DHT22;4425;50.872;4.712;2022-08-05T13:50:06;24.40;98.60
8778;DHT22;4425;50.872;4.712;2022-08-05T13:52:36;24.00;98.90
8778;DHT22;4425;50.872;4.712;2022-08-05T13:55:04;23.80;99.20
8778;DHT22;4425;50.872;4.712;2022-08-05T13:57:50;23.80;99.40
8778;DHT22;4425;50.872;4.712;2022-08-05T14:00:20;23.90;99.30
8778;DHT22;4425;50.872;4.712;2022-08-05T14:03:17;24.00;99.00
8778;DHT22;4425;50.872;4.712;2022-08-05T14:05:45;24.10;98.70
8778;DHT22;4425;50.872;4.712;2022-08-05T14:08:11;24.10;98.60
8778;DHT22;4425;50.872;4.712;2022-08-05T14:10:41;24.30;99.10
8778;DHT22;4425;50.872;4.712;2022-08-05T14:13:13;24.50;98.70
8778;DHT22;4425;50.872;4.712;2022-08-05T14:15:42;24.80;98.60
8778;DHT22;4425;50.872;4.712;2022-08-05T14:18:16;25.10;98.00
8778;DHT22;4425;50.872;4.712;2022-08-05T14:20:45;25.20;98.00
8778;DHT22;4425;50.872;4.712;2022-08-05T14:23:14;25.10;97.90
8778;DHT22;4425;50.872;4.712;2022-08-05T14:25:41;25.00;98.10
8778;DHT22;4425;50.872;4.712;2022-08-05T14:28:13;24.90;98.20
8778;DHT22;4425;50.872;4.712;2022-08-05T14:31:00;24.80;98.30
8778;DHT22;4425;50.872;4.712;2022-08-05T14:33:30;24.70;98.70
8778;DHT22;4425;50.872;4.712;2022-08-05T14:36:02;24.60;98.70
8778;DHT22;4425;50.872;4.712;2022-08-05T14:38:47;24.20;98.80
8778;DHT22;4425;50.872;4.712;2022-08-05T14:41:28;24.20;98.90
8778;DHT22;4425;50.872;4.712;2022-08-05T14:44:04;24.30;99.00
8778;DHT22;4425;50.872;4.712;2022-08-05T14:46:35;24.40;99.20
8778;DHT22;4425;50.872;4.712;2022-08-05T14:49:25;24.40;99.00
8778;DHT22;4425;50.872;4.712;2022-08-05T14:52:00;24.50;98.60
8778;DHT22;4425;50.872;4.712;2022-08-05T14:54:28;24.40;98.60
8778;DHT22;4425;50.872;4.712;2022-08-05T14:57:09;24.60;98.60
8778;DHT22;4425;50.872;4.712;2022-08-05T14:59:42;24.80;98.10
8778;DHT22;4425;50.872;4.712;2022-08-05T15:02:11;24.80;97.90
8778;DHT22;4425;50.872;4.712;2022-08-05T15:04:43;24.90;97.20
8778;DHT22;4425;50.872;4.712;2022-08-05T15:07:12;24.90;97.40
8778;DHT22;4425;50.872;4.712;2022-08-05T15:09:42;25.10;97.60
8778;DHT22;4425;50.872;4.712;2022-08-05T15:12:12;25.20;97.30
8778;DHT22;4425;50.872;4.712;2022-08-05T15:14:45;25.20;97.30
8778;DHT22;4425;50.872;4.712;2022-08-05T15:17:14;25.10;97.10
8778;DHT22;4425;50.872;4.712;2022-08-05T15:19:49;25.10;97.40
8778;DHT22;4425;50.872;4.712;2022-08-05T15:22:17;25.40;96.80
8778;DHT22;4425;50.872;4.712;2022-08-05T15:24:50;25.20;96.40
8778;DHT22;4425;50.872;4.712;2022-08-05T15:27:26;25.20;96.70
8778;DHT22;4425;50.872;4.712;2022-08-05T15:30:12;25.20;96.40
8778;DHT22;4425;50.872;4.712;2022-08-05T15:32:56;24.90;96.70
8778;DHT22;4425;50.872;4.712;2022-08-05T15:35:25;24.60;96.50
8778;DHT22;4425;50.872;4.712;2022-08-05T15:41:38;24.50;96.80
8778;DHT22;4425;50.872;4.712;2022-08-05T15:48:01;24.80;96.10
8778;DHT22;4425;50.872;4.712;2022-08-05T15:50:28;24.70;96.00
8778;DHT22;4425;50.872;4.712;2022-08-05T15:53:24;24.60;96.40
8778;DHT22;4425;50.872;4.712;2022-08-05T15:56:07;24.50;96.10
8778;DHT22;4425;50.872;4.712;2022-08-05T15:58:38;24.50;96.10
8778;DHT22;4425;50.872;4.712;2022-08-05T16:01:13;24.60;95.90
8778;DHT22;4425;50.872;4.712;2022-08-05T16:04:01;24.40;96.20
8778;DHT22;4425;50.872;4.712;2022-08-05T16:06:39;24.30;96.70
8778;DHT22;4425;50.872;4.712;2022-08-05T16:09:14;24.30;97.20
8778;DHT22;4425;50.872;4.712;2022-08-05T16:11:55;24.10;97.30
8778;DHT22;4425;50.872;4.712;2022-08-05T16:14:25;24.00;97.60
8778;DHT22;4425;50.872;4.712;2022-08-05T16:17:05;24.00;97.50
8778;DHT22;4425;50.872;4.712;2022-08-05T16:19:57;23.80;97.80
8778;DHT22;4425;50.872;4.712;2022-08-05T16:22:25;23.70;98.50
8778;DHT22;4425;50.872;4.712;2022-08-05T16:24:53;23.60;98.50
8778;DHT22;4425;50.872;4.712;2022-08-05T16:27:21;23.70;98.50
8778;DHT22;4425;50.872;4.712;2022-08-05T16:29:53;23.40;98.60
8778;DHT22;4425;50.872;4.712;2022-08-05T16:32:34;23.40;98.90
8778;DHT22;4425;50.872;4.712;2022-08-05T16:35:17;23.50;98.80
8778;DHT22;4425;50.872;4.712;2022-08-05T16:37:52;23.70;98.20
8778;DHT22;4425;50.872;4.712;2022-08-05T16:40:34;23.60;97.90
8778;DHT22;4425;50.872;4.712;2022-08-05T16:46:20;23.50;98.40
8778;DHT22;4425;50.872;4.712;2022-08-05T16:48:47;23.70;98.10
8778;DHT22;4425;50.872;4.712;2022-08-05T16:51:17;23.80;97.70
8778;DHT22;4425;50.872;4.712;2022-08-05T16:53:44;23.70;97.50
8778;DHT22;4425;50.872;4.712;2022-08-05T16:56:34;23.80;97.10
8778;DHT22;4425;50.872;4.712;2022-08-05T16:59:07;23.80;97.30
8778;DHT22;4425;50.872;4.712;2022-08-05T17:01:36;23.90;96.70
8778;DHT22;4425;50.872;4.712;2022-08-05T17:04:06;23.80;96.90
8778;DHT22;4425;50.872;4.712;2022-08-05T17:06:36;23.70;98.20
8778;DHT22;4425;50.872;4.712;2022-08-05T17:09:05;23.60;99.50
8778;DHT22;4425;50.872;4.712;2022-08-05T17:11:32;23.50;99.90
8778;DHT22;4425;50.872;4.712;2022-08-05T17:14:02;23.00;99.90
8778;DHT22;4425;50.872;4.712;2022-08-05T17:16:31;22.70;99.90
8778;DHT22;4425;50.872;4.712;2022-08-05T17:19:15;22.60;99.90
8778;DHT22;4425;50.872;4.712;2022-08-05T17:21:55;22.40;99.90
8778;DHT22;4425;50.872;4.712;2022-08-05T17:24:24;22.20;99.90
8778;DHT22;4425;50.872;4.712;2022-08-05T17:27:05;22.10;99.90
8778;DHT22;4425;50.872;4.712;2022-08-05T17:29:46;22.10;99.90
8778;DHT22;4425;50.872;4.712;2022-08-05T17:32:18;21.90;99.90
8778;DHT22;4425;50.872;4.712;2022-08-05T17:34:47;21.70;99.90
8778;DHT22;4425;50.872;4.712;2022-08-05T17:37:26;21.70;99.90
8778;DHT22;4425;50.872;4.712;2022-08-05T17:40:10;21.60;99.90
8778;DHT22;4425;50.872;4.712;2022-08-05T17:42:40;21.60;99.90
8778;DHT22;4425;50.872;4.712;2022-08-05T17:45:27;21.60;99.90
8778;DHT22;4425;50.872;4.712;2022-08-05T17:48:03;21.60;99.90
8778;DHT22;4425;50.872;4.712;2022-08-05T17:50:33;21.60;99.90
8778;DHT22;4425;50.872;4.712;2022-08-05T17:53:03;21.70;99.90
8778;DHT22;4425;50.872;4.712;2022-08-05T17:55:36;21.70;99.90
8778;DHT22;4425;50.872;4.712;2022-08-05T17:58:04;21.60;99.90
8778;DHT22;4425;50.872;4.712;2022-08-05T18:00:31;21.50;99.90
8778;DHT22;4425;50.872;4.712;2022-08-05T18:03:02;21.40;99.90
8778;DHT22;4425;50.872;4.712;2022-08-05T18:05:32;21.20;99.90
8778;DHT22;4425;50.872;4.712;2022-08-05T18:08:03;21.30;99.90
8778;DHT22;4425;50.872;4.712;2022-08-05T18:10:35;21.30;99.90
8778;DHT22;4425;50.872;4.712;2022-08-05T18:13:04;21.30;99.90